sensor_id;sensor_type;location;lat;lon;timestamp;pressure;altitude;pressure_sealevel;temperature;humidity
35878;BME280;21982;49.804;24.072;2023-04-05T00:01:08;97469.50;;;1.40;51.33
35878;BME280;21982;49.804;24.072;2023-04-05T00:03:36;97466.38;;;1.37;51.65
35878;BME280;21982;49.804;24.072;2023-04-05T00:06:01;97468.84;;;1.38;51.89
35878;BME280;21982;49.804;24.072;2023-04-05T00:08:29;97319.13;;;0.46;52.17
35878;BME280;21982;49.804;24.072;2023-04-05T00:10:55;97433.00;;;1.19;51.93
35878;BME280;21982;49.804;24.072;2023-04-05T00:13:21;97415.63;;;1.09;51.65
35878;BME280;21982;49.804;24.072;2023-04-05T00:15:47;97380.91;;;0.87;52.08
35878;BME280;21982;49.804;24.072;2023-04-05T00:18:13;97454.78;;;1.29;52.18
35878;BME280;21982;49.804;24.072;2023-04-05T00:20:52;97453.13;;;1.28;52.43
35878;BME280;21982;49.804;24.072;2023-04-05T00:23:18;97451.72;;;1.24;52.40
35878;BME280;21982;49.804;24.072;2023-04-05T00:25:45;97199.94;;;-0.35;52.16
35878;BME280;21982;49.804;24.072;2023-04-05T00:28:11;97448.41;;;1.22;52.10
35878;BME280;21982;49.804;24.072;2023-04-05T00:30:37;97361.00;;;0.65;52.64
35878;BME280;21982;49.804;24.072;2023-04-05T00:33:03;97376.22;;;0.70;52.50
35878;BME280;21982;49.804;24.072;2023-04-05T00:35:28;97448.00;;;1.06;52.51
35878;BME280;21982;49.804;24.072;2023-04-05T00:37:56;97398.59;;;0.73;52.76
35878;BME280;21982;49.804;24.072;2023-04-05T00:40:22;97447.75;;;1.09;52.49
35878;BME280;21982;49.804;24.072;2023-04-05T00:42:48;97298.19;;;0.16;52.79
35878;BME280;21982;49.804;24.072;2023-04-05T00:45:13;97387.75;;;0.68;52.57
35878;BME280;21982;49.804;24.072;2023-04-05T00:47:43;97199.38;;;-0.50;52.90
35878;BME280;21982;49.804;24.072;2023-04-05T00:50:09;97434.78;;;0.98;52.82
35878;BME280;21982;49.804;24.072;2023-04-05T00:52:36;97431.22;;;0.99;52.95
35878;BME280;21982;49.804;24.072;2023-04-05T00:55:06;97368.47;;;0.59;53.10
35878;BME280;21982;49.804;24.072;2023-04-05T00:57:34;97267.50;;;-0.13;53.06
35878;BME280;21982;49.804;24.072;2023-04-05T01:00:06;97381.72;;;0.67;53.38
35878;BME280;21982;49.804;24.072;2023-04-05T01:02:40;97436.44;;;0.99;53.16
35878;BME280;21982;49.804;24.072;2023-04-05T01:05:36;97441.91;;;0.96;53.55
35878;BME280;21982;49.804;24.072;2023-04-05T01:10:45;97412.34;;;0.75;53.42
35878;BME280;21982;49.804;24.072;2023-04-05T01:13:15;97408.47;;;0.69;53.64
35878;BME280;21982;49.804;24.072;2023-04-05T01:15:40;97434.59;;;0.79;53.74
35878;BME280;21982;49.804;24.072;2023-04-05T01:18:06;97399.53;;;0.51;53.56
35878;BME280;21982;49.804;24.072;2023-04-05T01:20:37;97365.38;;;0.22;54.12
35878;BME280;21982;49.804;24.072;2023-04-05T01:34:18;97441.31;;;0.60;54.40
35878;BME280;21982;49.804;24.072;2023-04-05T01:37:01;97375.34;;;0.17;54.77
35878;BME280;21982;49.804;24.072;2023-04-05T01:39:28;97430.66;;;0.52;55.34
35878;BME280;21982;49.804;24.072;2023-04-05T01:41:59;97436.94;;;0.50;55.43
35878;BME280;21982;49.804;24.072;2023-04-05T01:44:25;97394.50;;;0.16;55.42
35878;BME280;21982;49.804;24.072;2023-04-05T01:46:51;97409.66;;;0.22;55.57
35878;BME280;21982;49.804;24.072;2023-04-05T01:49:16;97434.00;;;0.43;55.95
35878;BME280;21982;49.804;24.072;2023-04-05T01:51:41;97427.97;;;0.43;56.18
35878;BME280;21982;49.804;24.072;2023-04-05T01:54:07;97360.81;;;0.03;56.00
35878;BME280;21982;49.804;24.072;2023-04-05T01:56:33;97348.66;;;-0.08;55.91
35878;BME280;21982;49.804;24.072;2023-04-05T01:58:58;97368.38;;;0.06;56.00
35878;BME280;21982;49.804;24.072;2023-04-05T02:01:23;97428.53;;;0.46;56.26
35878;BME280;21982;49.804;24.072;2023-04-05T02:03:49;97372.03;;;0.15;56.58
35878;BME280;21982;49.804;24.072;2023-04-05T02:06:14;97370.84;;;0.19;56.26
35878;BME280;21982;49.804;24.072;2023-04-05T02:08:40;97208.75;;;-0.81;56.26
35878;BME280;21982;49.804;24.072;2023-04-05T02:11:06;97424.75;;;0.50;56.66
35878;BME280;21982;49.804;24.072;2023-04-05T02:13:31;97428.88;;;0.53;56.83
35878;BME280;21982;49.804;24.072;2023-04-05T02:15:56;97432.78;;;0.58;56.66
35878;BME280;21982;49.804;24.072;2023-04-05T02:18:22;97436.34;;;0.57;57.11
35878;BME280;21982;49.804;24.072;2023-04-05T02:21:00;97287.63;;;-0.26;56.83
35878;BME280;21982;49.804;24.072;2023-04-05T02:23:26;97287.63;;;-0.26;56.88
35878;BME280;21982;49.804;24.072;2023-04-05T02:25:52;97419.63;;;0.60;56.92
35878;BME280;21982;49.804;24.072;2023-04-05T02:28:17;97361.13;;;0.21;56.79
35878;BME280;21982;49.804;24.072;2023-04-05T02:30:43;97338.31;;;0.13;56.86
35878;BME280;21982;49.804;24.072;2023-04-05T02:33:10;97313.41;;;-0.12;56.43
35878;BME280;21982;49.804;24.072;2023-04-05T02:35:36;97382.56;;;0.24;56.95
35878;BME280;21982;49.804;24.072;2023-04-05T02:38:03;97431.63;;;0.51;57.18
35878;BME280;21982;49.804;24.072;2023-04-05T02:40:29;97378.53;;;0.20;57.16
35878;BME280;21982;49.804;24.072;2023-04-05T02:42:56;97436.69;;;0.53;57.29
35878;BME280;21982;49.804;24.072;2023-04-05T02:45:21;97432.22;;;0.44;57.66
35878;BME280;21982;49.804;24.072;2023-04-05T02:47:46;97376.75;;;0.21;57.77
35878;BME280;21982;49.804;24.072;2023-04-05T02:50:12;97419.16;;;0.55;57.37
35878;BME280;21982;49.804;24.072;2023-04-05T02:52:37;97313.41;;;-0.12;57.38
35878;BME280;21982;49.804;24.072;2023-04-05T02:55:06;97424.84;;;0.60;57.69
35878;BME280;21982;49.804;24.072;2023-04-05T02:57:31;97341.75;;;0.03;57.97
35878;BME280;21982;49.804;24.072;2023-04-05T02:59:57;97158.19;;;-0.99;57.58
35878;BME280;21982;49.804;24.072;2023-04-05T03:02:22;97372.78;;;0.38;57.71
35878;BME280;21982;49.804;24.072;2023-04-05T03:04:50;97393.47;;;0.50;57.52
35878;BME280;21982;49.804;24.072;2023-04-05T03:07:17;97414.75;;;0.66;57.60
35878;BME280;21982;49.804;24.072;2023-04-05T03:09:46;97391.59;;;0.52;57.59
35878;BME280;21982;49.804;24.072;2023-04-05T03:12:12;97377.44;;;0.34;57.73
35878;BME280;21982;49.804;24.072;2023-04-05T03:14:38;97420.47;;;0.60;58.18
35878;BME280;21982;49.804;24.072;2023-04-05T03:17:03;97264.00;;;-0.34;58.17
35878;BME280;21982;49.804;24.072;2023-04-05T03:19:29;97372.91;;;0.36;58.19
35878;BME280;21982;49.804;24.072;2023-04-05T03:21:54;97408.63;;;0.56;57.81
35878;BME280;21982;49.804;24.072;2023-04-05T03:24:20;97426.06;;;0.45;58.36
35878;BME280;21982;49.804;24.072;2023-04-05T03:26:46;97411.75;;;0.39;58.47
35878;BME280;21982;49.804;24.072;2023-04-05T03:29:11;97417.19;;;0.36;58.54
35878;BME280;21982;49.804;24.072;2023-04-05T03:31:37;97374.41;;;0.07;58.45
35878;BME280;21982;49.804;24.072;2023-04-05T03:34:02;97347.47;;;-0.15;58.39
35878;BME280;21982;49.804;24.072;2023-04-05T03:36:28;97353.63;;;-0.16;58.37
35878;BME280;21982;49.804;24.072;2023-04-05T03:38:57;97223.31;;;-1.12;58.75
35878;BME280;21982;49.804;24.072;2023-04-05T03:41:22;97423.16;;;0.16;58.71
35878;BME280;21982;49.804;24.072;2023-04-05T03:43:47;97283.06;;;-0.67;58.84
35878;BME280;21982;49.804;24.072;2023-04-05T03:46:13;97359.41;;;-0.35;59.16
35878;BME280;21982;49.804;24.072;2023-04-05T03:48:39;97420.13;;;-0.01;59.25
35878;BME280;21982;49.804;24.072;2023-04-05T03:51:04;97424.03;;;-0.06;59.30
35878;BME280;21982;49.804;24.072;2023-04-05T03:53:30;97383.66;;;-0.23;59.52
35878;BME280;21982;49.804;24.072;2023-04-05T03:55:56;97386.50;;;-0.26;59.43
35878;BME280;21982;49.804;24.072;2023-04-05T03:58:21;97417.97;;;-0.07;59.73
35878;BME280;21982;49.804;24.072;2023-04-05T04:00:47;97356.84;;;-0.46;59.82
35878;BME280;21982;49.804;24.072;2023-04-05T04:03:12;97335.56;;;-0.51;59.87
35878;BME280;21982;49.804;24.072;2023-04-05T04:05:39;97292.91;;;-0.82;59.86
35878;BME280;21982;49.804;24.072;2023-04-05T04:08:05;97399.53;;;-0.26;59.92
35878;BME280;21982;49.804;24.072;2023-04-05T04:10:30;97426.00;;;0.02;59.92
35878;BME280;21982;49.804;24.072;2023-04-05T04:12:56;97314.38;;;-0.69;60.39
35878;BME280;21982;49.804;24.072;2023-04-05T04:15:21;97431.69;;;0.07;60.16
35878;BME280;21982;49.804;24.072;2023-04-05T04:17:47;97426.84;;;0.02;59.99
35878;BME280;21982;49.804;24.072;2023-04-05T04:20:12;97299.06;;;-0.72;60.59
35878;BME280;21982;49.804;24.072;2023-04-05T04:22:39;97197.66;;;-1.27;60.77
35878;BME280;21982;49.804;24.072;2023-04-05T04:25:10;97419.00;;;0.24;60.36
35878;BME280;21982;49.804;24.072;2023-04-05T04:27:40;97307.53;;;-0.58;60.46
35878;BME280;21982;49.804;24.072;2023-04-05T04:30:10;97389.13;;;-0.04;60.43
35878;BME280;21982;49.804;24.072;2023-04-05T04:32:37;97267.25;;;-0.75;60.84
35878;BME280;21982;49.804;24.072;2023-04-05T04:35:32;97406.25;;;0.10;60.70
35878;BME280;21982;49.804;24.072;2023-04-05T04:38:04;97429.25;;;0.48;60.74
35878;BME280;21982;49.804;24.072;2023-04-05T04:40:34;97348.38;;;0.07;60.50
35878;BME280;21982;49.804;24.072;2023-04-05T04:43:23;97399.84;;;0.57;60.20
35878;BME280;21982;49.804;24.072;2023-04-05T04:45:51;97257.28;;;-0.37;60.52
35878;BME280;21982;49.804;24.072;2023-04-05T04:48:19;97430.06;;;0.92;60.18
35878;BME280;21982;49.804;24.072;2023-04-05T04:50:46;97436.84;;;1.04;60.13
35878;BME280;21982;49.804;24.072;2023-04-05T04:53:12;97423.97;;;1.03;59.60
35878;BME280;21982;49.804;24.072;2023-04-05T04:55:41;97376.81;;;0.74;59.76
35878;BME280;21982;49.804;24.072;2023-04-05T04:58:07;97425.63;;;1.04;60.07
35878;BME280;21982;49.804;24.072;2023-04-05T05:00:40;97377.38;;;0.77;59.77
35878;BME280;21982;49.804;24.072;2023-04-05T05:03:09;97374.78;;;0.77;59.71
35878;BME280;21982;49.804;24.072;2023-04-05T05:05:44;97437.06;;;1.12;59.98
35878;BME280;21982;49.804;24.072;2023-04-05T05:08:12;97296.94;;;0.31;60.20
35878;BME280;21982;49.804;24.072;2023-04-05T05:10:37;97428.03;;;1.16;59.92
35878;BME280;21982;49.804;24.072;2023-04-05T05:13:03;97426.63;;;1.12;60.00
35878;BME280;21982;49.804;24.072;2023-04-05T05:15:28;97400.31;;;0.94;60.22
35878;BME280;21982;49.804;24.072;2023-04-05T05:17:53;97429.50;;;1.09;60.34
35878;BME280;21982;49.804;24.072;2023-04-05T05:20:20;97385.03;;;0.90;59.61
35878;BME280;21982;49.804;24.072;2023-04-05T05:22:45;97432.50;;;1.25;60.06
35878;BME280;21982;49.804;24.072;2023-04-05T05:25:10;97412.72;;;1.23;59.80
35878;BME280;21982;49.804;24.072;2023-04-05T05:27:37;97404.19;;;1.21;59.24
35878;BME280;21982;49.804;24.072;2023-04-05T05:30:03;97406.16;;;1.28;59.42
35878;BME280;21982;49.804;24.072;2023-04-05T05:32:33;97208.69;;;0.17;59.33
35878;BME280;21982;49.804;24.072;2023-04-05T05:34:59;97429.94;;;1.56;59.67
35878;BME280;21982;49.804;24.072;2023-04-05T05:37:31;97426.06;;;1.71;59.56
35878;BME280;21982;49.804;24.072;2023-04-05T05:39:57;97425.63;;;1.76;59.55
35878;BME280;21982;49.804;24.072;2023-04-05T05:42:23;97421.69;;;1.81;59.42
35878;BME280;21982;49.804;24.072;2023-04-05T05:44:48;97380.97;;;1.39;59.42
35878;BME280;21982;49.804;24.072;2023-04-05T05:47:14;97418.81;;;1.84;59.17
35878;BME280;21982;49.804;24.072;2023-04-05T05:49:39;97352.88;;;1.52;58.75
35878;BME280;21982;49.804;24.072;2023-04-05T05:52:05;97368.56;;;1.61;58.96
35878;BME280;21982;49.804;24.072;2023-04-05T05:54:30;97400.66;;;1.83;58.59
35878;BME280;21982;49.804;24.072;2023-04-05T05:56:55;97426.88;;;2.12;58.49
35878;BME280;21982;49.804;24.072;2023-04-05T05:59:21;97327.00;;;1.70;58.11
35878;BME280;21982;49.804;24.072;2023-04-05T06:01:47;97433.91;;;2.61;58.66
35878;BME280;21982;49.804;24.072;2023-04-05T06:04:13;97430.63;;;3.07;57.52
35878;BME280;21982;49.804;24.072;2023-04-05T06:06:39;97211.19;;;2.19;57.15
35878;BME280;21982;49.804;24.072;2023-04-05T06:09:07;97390.28;;;4.76;56.33
35878;BME280;21982;49.804;24.072;2023-04-05T06:11:32;97407.69;;;6.58;54.48
35878;BME280;21982;49.804;24.072;2023-04-05T06:13:58;97383.81;;;7.81;51.21
35878;BME280;21982;49.804;24.072;2023-04-05T06:16:23;97403.34;;;8.58;49.70
35878;BME280;21982;49.804;24.072;2023-04-05T06:18:49;97389.84;;;8.53;48.68
35878;BME280;21982;49.804;24.072;2023-04-05T06:21:14;97434.38;;;9.10;48.53
35878;BME280;21982;49.804;24.072;2023-04-05T06:23:42;97440.66;;;8.86;47.87
35878;BME280;21982;49.804;24.072;2023-04-05T06:26:14;97436.31;;;8.62;48.63
35878;BME280;21982;49.804;24.072;2023-04-05T06:28:39;97433.63;;;8.31;48.43
35878;BME280;21982;49.804;24.072;2023-04-05T06:31:05;97451.72;;;8.51;48.54
35878;BME280;21982;49.804;24.072;2023-04-05T06:33:30;97434.94;;;9.66;47.68
35878;BME280;21982;49.804;24.072;2023-04-05T06:35:56;97427.75;;;10.27;46.40
35878;BME280;21982;49.804;24.072;2023-04-05T06:38:21;97432.00;;;11.29;45.58
35878;BME280;21982;49.804;24.072;2023-04-05T06:40:46;97333.94;;;10.87;44.62
35878;BME280;21982;49.804;24.072;2023-04-05T06:43:12;97431.88;;;12.15;43.35
35878;BME280;21982;49.804;24.072;2023-04-05T06:45:37;97411.44;;;12.50;42.79
35878;BME280;21982;49.804;24.072;2023-04-05T06:48:02;97314.38;;;12.40;41.73
35878;BME280;21982;49.804;24.072;2023-04-05T06:50:28;97434.50;;;13.78;40.96
35878;BME280;21982;49.804;24.072;2023-04-05T06:52:54;97380.03;;;13.67;40.47
35878;BME280;21982;49.804;24.072;2023-04-05T06:55:20;97437.31;;;14.42;39.22
35878;BME280;21982;49.804;24.072;2023-04-05T06:57:46;97383.81;;;14.24;38.84
35878;BME280;21982;49.804;24.072;2023-04-05T07:00:12;97434.88;;;13.55;38.53
35878;BME280;21982;49.804;24.072;2023-04-05T07:02:41;97360.16;;;12.43;39.26
35878;BME280;21982;49.804;24.072;2023-04-05T07:05:06;97429.69;;;11.90;39.84
35878;BME280;21982;49.804;24.072;2023-04-05T07:07:32;97312.50;;;9.80;40.90
35878;BME280;21982;49.804;24.072;2023-04-05T07:09:58;97435.00;;;9.95;41.82
35878;BME280;21982;49.804;24.072;2023-04-05T07:12:23;97320.13;;;8.93;42.14
35878;BME280;21982;49.804;24.072;2023-04-05T07:14:49;97437.00;;;9.56;42.47
35878;BME280;21982;49.804;24.072;2023-04-05T07:17:14;97443.09;;;9.94;42.19
35878;BME280;21982;49.804;24.072;2023-04-05T07:19:40;97351.53;;;10.22;41.28
35878;BME280;21982;49.804;24.072;2023-04-05T07:22:05;97337.09;;;11.74;39.90
35878;BME280;21982;49.804;24.072;2023-04-05T07:24:31;97445.06;;;13.31;38.59
35878;BME280;21982;49.804;24.072;2023-04-05T07:26:59;97425.88;;;13.95;37.48
35878;BME280;21982;49.804;24.072;2023-04-05T07:29:28;97431.63;;;13.79;37.11
35878;BME280;21982;49.804;24.072;2023-04-05T07:31:53;97448.34;;;13.33;37.15
35878;BME280;21982;49.804;24.072;2023-04-05T07:34:18;97359.41;;;12.68;37.12
35878;BME280;21982;49.804;24.072;2023-04-05T07:36:47;97375.53;;;12.19;37.31
35878;BME280;21982;49.804;24.072;2023-04-05T07:39:14;97322.28;;;11.30;37.67
35878;BME280;21982;49.804;24.072;2023-04-05T07:41:42;97447.41;;;13.00;37.74
35878;BME280;21982;49.804;24.072;2023-04-05T07:44:08;97459.41;;;14.36;36.22
35878;BME280;21982;49.804;24.072;2023-04-05T07:46:33;97432.31;;;15.41;35.04
35878;BME280;21982;49.804;24.072;2023-04-05T07:49:03;97457.56;;;16.27;34.01
35878;BME280;21982;49.804;24.072;2023-04-05T07:51:29;97455.94;;;16.26;33.55
35878;BME280;21982;49.804;24.072;2023-04-05T07:53:55;97452.25;;;15.01;34.13
35878;BME280;21982;49.804;24.072;2023-04-05T07:56:21;97385.75;;;13.37;34.87
35878;BME280;21982;49.804;24.072;2023-04-05T07:58:47;97402.22;;;12.39;35.68
35878;BME280;21982;49.804;24.072;2023-04-05T08:01:14;97361.44;;;11.07;36.60
35878;BME280;21982;49.804;24.072;2023-04-05T08:03:48;97438.31;;;10.41;37.40
35878;BME280;21982;49.804;24.072;2023-04-05T08:06:15;97273.47;;;8.32;38.50
35878;BME280;21982;49.804;24.072;2023-04-05T08:08:44;97447.84;;;9.23;39.49
35878;BME280;21982;49.804;24.072;2023-04-05T08:11:10;97321.31;;;9.28;39.17
35878;BME280;21982;49.804;24.072;2023-04-05T08:13:39;97372.53;;;10.24;38.43
35878;BME280;21982;49.804;24.072;2023-04-05T08:16:09;97432.75;;;10.51;37.59
35878;BME280;21982;49.804;24.072;2023-04-05T08:18:35;97356.16;;;11.07;37.80
35878;BME280;21982;49.804;24.072;2023-04-05T08:21:00;97297.28;;;10.69;36.95
35878;BME280;21982;49.804;24.072;2023-04-05T08:23:26;97274.16;;;10.56;36.90
35878;BME280;21982;49.804;24.072;2023-04-05T08:25:52;97408.59;;;13.05;36.34
35878;BME280;21982;49.804;24.072;2023-04-05T08:28:17;97439.28;;;14.66;34.81
35878;BME280;21982;49.804;24.072;2023-04-05T08:30:43;97168.91;;;13.28;34.21
35878;BME280;21982;49.804;24.072;2023-04-05T08:33:10;97326.19;;;13.78;33.63
35878;BME280;21982;49.804;24.072;2023-04-05T08:35:36;97435.75;;;14.72;33.59
35878;BME280;21982;49.804;24.072;2023-04-05T08:38:08;97430.09;;;15.95;33.13
35878;BME280;21982;49.804;24.072;2023-04-05T08:40:49;97431.31;;;16.60;32.58
35878;BME280;21982;49.804;24.072;2023-04-05T08:46:16;97437.38;;;17.64;30.89
35878;BME280;21982;49.804;24.072;2023-04-05T08:48:43;97403.94;;;17.55;30.51
35878;BME280;21982;49.804;24.072;2023-04-05T08:51:08;97421.22;;;17.29;30.44
35878;BME280;21982;49.804;24.072;2023-04-05T08:53:35;97407.91;;;15.94;30.88
35878;BME280;21982;49.804;24.072;2023-04-05T08:56:01;97422.31;;;14.54;31.54
35878;BME280;21982;49.804;24.072;2023-04-05T08:58:28;97422.31;;;14.34;32.41
35878;BME280;21982;49.804;24.072;2023-04-05T09:00:56;97423.88;;;15.13;31.93
35878;BME280;21982;49.804;24.072;2023-04-05T09:03:25;97236.72;;;13.77;31.94
35878;BME280;21982;49.804;24.072;2023-04-05T09:05:52;97434.25;;;13.39;32.29
35878;BME280;21982;49.804;24.072;2023-04-05T09:08:18;97412.59;;;12.75;33.70
35878;BME280;21982;49.804;24.072;2023-04-05T09:10:50;97409.88;;;13.95;33.51
35878;BME280;21982;49.804;24.072;2023-04-05T09:13:16;97430.72;;;15.34;32.66
35878;BME280;21982;49.804;24.072;2023-04-05T09:15:43;97457.78;;;16.00;31.52
35878;BME280;21982;49.804;24.072;2023-04-05T09:18:10;97434.28;;;16.09;30.72
35878;BME280;21982;49.804;24.072;2023-04-05T09:20:36;97401.09;;;15.98;30.44
35878;BME280;21982;49.804;24.072;2023-04-05T09:23:01;97338.34;;;15.64;29.98
35878;BME280;21982;49.804;24.072;2023-04-05T09:25:40;97429.06;;;15.96;30.29
35878;BME280;21982;49.804;24.072;2023-04-05T09:28:07;97428.72;;;15.92;30.19
35878;BME280;21982;49.804;24.072;2023-04-05T09:30:33;97430.59;;;15.85;30.13
35878;BME280;21982;49.804;24.072;2023-04-05T09:33:01;97432.72;;;14.62;30.83
35878;BME280;21982;49.804;24.072;2023-04-05T09:35:29;97366.75;;;13.47;31.81
35878;BME280;21982;49.804;24.072;2023-04-05T09:37:57;97373.91;;;13.40;31.78
35878;BME280;21982;49.804;24.072;2023-04-05T09:40:22;97433.25;;;13.67;32.42
35878;BME280;21982;49.804;24.072;2023-04-05T09:42:48;97364.06;;;13.80;31.93
35878;BME280;21982;49.804;24.072;2023-04-05T09:45:14;97440.72;;;14.62;31.27
35878;BME280;21982;49.804;24.072;2023-04-05T09:47:40;97434.13;;;14.71;31.36
35878;BME280;21982;49.804;24.072;2023-04-05T09:52:41;97407.44;;;13.34;31.84
35878;BME280;21982;49.804;24.072;2023-04-05T09:55:07;97432.22;;;13.48;32.05
35878;BME280;21982;49.804;24.072;2023-04-05T09:57:35;97407.06;;;13.77;31.78
35878;BME280;21982;49.804;24.072;2023-04-05T10:00:02;97439.38;;;14.07;31.59
35878;BME280;21982;49.804;24.072;2023-04-05T10:02:37;97438.34;;;14.08;31.59
35878;BME280;21982;49.804;24.072;2023-04-05T10:05:07;97321.31;;;13.42;31.56
35878;BME280;21982;49.804;24.072;2023-04-05T10:07:36;97343.78;;;13.13;32.22
35878;BME280;21982;49.804;24.072;2023-04-05T10:10:02;97443.06;;;13.66;32.00
35878;BME280;21982;49.804;24.072;2023-04-05T10:12:27;97434.06;;;13.74;32.19
35878;BME280;21982;49.804;24.072;2023-04-05T10:14:54;97430.13;;;14.43;32.08
35878;BME280;21982;49.804;24.072;2023-04-05T10:17:27;97432.28;;;14.65;31.66
35878;BME280;21982;49.804;24.072;2023-04-05T10:20:09;97272.78;;;12.81;31.44
35878;BME280;21982;49.804;24.072;2023-04-05T10:23:00;97430.78;;;13.39;31.98
35878;BME280;21982;49.804;24.072;2023-04-05T10:25:59;97423.22;;;13.43;32.26
35878;BME280;21982;49.804;24.072;2023-04-05T10:28:36;97421.72;;;13.20;32.15
35878;BME280;21982;49.804;24.072;2023-04-05T10:31:24;97416.81;;;13.17;32.03
35878;BME280;21982;49.804;24.072;2023-04-05T10:34:04;97421.16;;;13.58;32.36
35878;BME280;21982;49.804;24.072;2023-04-05T10:36:50;97419.59;;;14.67;31.45
35878;BME280;21982;49.804;24.072;2023-04-05T10:39:32;97426.81;;;15.68;30.98
35878;BME280;21982;49.804;24.072;2023-04-05T10:42:00;97404.13;;;16.45;29.92
35878;BME280;21982;49.804;24.072;2023-04-05T10:44:31;97414.91;;;16.75;29.54
35878;BME280;21982;49.804;24.072;2023-04-05T10:47:01;97428.75;;;15.86;29.73
35878;BME280;21982;49.804;24.072;2023-04-05T10:49:29;97417.47;;;14.83;30.14
35878;BME280;21982;49.804;24.072;2023-04-05T10:51:57;97420.38;;;14.74;30.77
35878;BME280;21982;49.804;24.072;2023-04-05T10:54:23;97375.28;;;15.11;30.74
35878;BME280;21982;49.804;24.072;2023-04-05T10:56:49;97200.31;;;14.54;30.13
35878;BME280;21982;49.804;24.072;2023-04-05T10:59:15;97395.75;;;15.98;29.85
35878;BME280;21982;49.804;24.072;2023-04-05T11:01:42;97418.03;;;15.92;30.10
35878;BME280;21982;49.804;24.072;2023-04-05T11:04:16;97367.69;;;15.39;30.26
35878;BME280;21982;49.804;24.072;2023-04-05T11:06:42;97430.50;;;15.73;30.23
35878;BME280;21982;49.804;24.072;2023-04-05T11:09:16;97347.25;;;16.01;29.47
35878;BME280;21982;49.804;24.072;2023-04-05T11:11:50;97435.47;;;16.56;29.04
35878;BME280;21982;49.804;24.072;2023-04-05T11:14:21;97424.94;;;16.80;29.07
35878;BME280;21982;49.804;24.072;2023-04-05T11:16:50;97431.91;;;16.01;28.58
35878;BME280;21982;49.804;24.072;2023-04-05T11:22:12;97415.31;;;16.17;29.64
35878;BME280;21982;49.804;24.072;2023-04-05T11:24:59;97307.22;;;16.50;28.88
35878;BME280;21982;49.804;24.072;2023-04-05T11:27:28;97388.34;;;17.63;28.20
35878;BME280;21982;49.804;24.072;2023-04-05T11:29:55;97408.16;;;18.56;27.77
35878;BME280;21982;49.804;24.072;2023-04-05T11:32:22;97443.84;;;19.20;27.18
35878;BME280;21982;49.804;24.072;2023-04-05T11:34:58;97409.72;;;19.03;27.00
35878;BME280;21982;49.804;24.072;2023-04-05T11:37:53;97398.84;;;18.70;27.03
35878;BME280;21982;49.804;24.072;2023-04-05T11:40:24;97401.31;;;18.60;26.92
35878;BME280;21982;49.804;24.072;2023-04-05T11:43:17;97432.00;;;19.04;27.52
35878;BME280;21982;49.804;24.072;2023-04-05T11:45:42;97332.34;;;18.32;26.40
35878;BME280;21982;49.804;24.072;2023-04-05T11:48:12;97422.59;;;18.78;26.06
35878;BME280;21982;49.804;24.072;2023-04-05T11:50:39;97391.16;;;18.62;26.61
35878;BME280;21982;49.804;24.072;2023-04-05T11:53:14;97408.19;;;18.44;26.38
35878;BME280;21982;49.804;24.072;2023-04-05T11:55:42;97407.50;;;18.14;26.51
35878;BME280;21982;49.804;24.072;2023-04-05T12:00:37;97328.13;;;17.42;26.17
35878;BME280;21982;49.804;24.072;2023-04-05T12:03:02;97323.31;;;16.80;26.33
35878;BME280;21982;49.804;24.072;2023-04-05T12:08:11;97340.94;;;16.99;26.67
35878;BME280;21982;49.804;24.072;2023-04-05T12:10:37;97401.53;;;17.35;26.75
35878;BME280;21982;49.804;24.072;2023-04-05T12:13:02;97294.00;;;15.38;26.78
35878;BME280;21982;49.804;24.072;2023-04-05T12:15:27;97388.44;;;15.06;27.87
35878;BME280;21982;49.804;24.072;2023-04-05T12:17:53;97373.78;;;15.78;27.67
35878;BME280;21982;49.804;24.072;2023-04-05T12:20:23;97317.69;;;16.51;27.06
35878;BME280;21982;49.804;24.072;2023-04-05T12:22:52;97396.47;;;17.98;26.34
35878;BME280;21982;49.804;24.072;2023-04-05T12:25:18;97263.13;;;17.00;26.32
35878;BME280;21982;49.804;24.072;2023-04-05T12:27:45;97378.28;;;16.39;26.65
35878;BME280;21982;49.804;24.072;2023-04-05T12:32:43;97380.50;;;15.56;27.75
35878;BME280;21982;49.804;24.072;2023-04-05T12:35:28;97361.50;;;16.14;27.55
35878;BME280;21982;49.804;24.072;2023-04-05T12:37:57;97328.63;;;16.13;27.42
35878;BME280;21982;49.804;24.072;2023-04-05T12:40:23;97406.66;;;16.95;27.00
35878;BME280;21982;49.804;24.072;2023-04-05T12:42:49;97405.94;;;16.99;26.87
35878;BME280;21982;49.804;24.072;2023-04-05T12:45:15;97354.84;;;16.23;26.69
35878;BME280;21982;49.804;24.072;2023-04-05T12:47:52;97409.59;;;16.14;27.07
35878;BME280;21982;49.804;24.072;2023-04-05T12:50:29;97395.34;;;16.20;26.91
35878;BME280;21982;49.804;24.072;2023-04-05T12:52:56;97410.00;;;15.67;27.28
35878;BME280;21982;49.804;24.072;2023-04-05T12:55:23;97348.28;;;14.94;27.35
35878;BME280;21982;49.804;24.072;2023-04-05T12:57:52;97413.84;;;15.08;27.66
35878;BME280;21982;49.804;24.072;2023-04-05T13:00:19;97389.59;;;14.79;27.78
35878;BME280;21982;49.804;24.072;2023-04-05T13:02:49;97351.81;;;14.50;28.02
35878;BME280;21982;49.804;24.072;2023-04-05T13:05:18;97314.25;;;14.00;27.68
35878;BME280;21982;49.804;24.072;2023-04-05T13:07:43;97380.81;;;13.87;28.18
35878;BME280;21982;49.804;24.072;2023-04-05T13:10:09;97324.75;;;13.03;28.94
35878;BME280;21982;49.804;24.072;2023-04-05T13:12:34;97298.94;;;12.70;29.22
35878;BME280;21982;49.804;24.072;2023-04-05T13:15:00;97408.00;;;13.10;29.46
35878;BME280;21982;49.804;24.072;2023-04-05T13:17:26;97394.19;;;12.73;29.55
35878;BME280;21982;49.804;24.072;2023-04-05T13:19:52;97207.75;;;11.07;29.75
35878;BME280;21982;49.804;24.072;2023-04-05T13:22:17;97399.19;;;11.80;29.76
35878;BME280;21982;49.804;24.072;2023-04-05T13:24:42;97335.06;;;10.99;30.09
35878;BME280;21982;49.804;24.072;2023-04-05T13:27:08;97267.19;;;10.34;30.90
35878;BME280;21982;49.804;24.072;2023-04-05T13:29:33;97383.25;;;10.66;31.17